Time;durP1;ratioP1;P1;durP2;ratioP2;P2;SDS_P1;SDS_P2;PMS_P1;PMS_P2;Temp;Humidity;BMP_temperature;BMP_pressure;BME280_temperature;BME280_humidity;BME280_pressure;Samples;Min_cycle;Max_cycle;Signal;HPM_P1;HPM_P2
2024/01/20 00:00:21;;;;;;;28.35;12.05;;;;;;;;;;5066349;28;20701;-83
2024/01/20 00:02:48;;;;;;;25.55;12.82;;;;;;;;;;5066864;28;20147;-84
2024/01/20 00:05:14;;;;;;;25.88;13.95;;;;;;;;;;5080478;28;20553;-82
2024/01/20 00:07:41;;;;;;;26.17;14.52;;;;;;;;;;5075192;28;20044;-81
2024/01/20 00:10:10;;;;;;;24.00;13.18;;;;;;;;;;5058663;28;20097;-85
2024/01/20 00:12:40;;;;;;;20.08;13.82;;;0.80;99.90;;;;;;5061905;28;20123;-83
2024/01/20 00:15:10;;;;;;;24.35;13.88;;;;;;;;;;5079695;28;20044;-85
2024/01/20 00:17:37;;;;;;;24.20;12.43;;;;;;;;;;5055157;28;20595;-83
2024/01/20 00:20:04;;;;;;;23.58;12.95;;;2.80;99.90;;;;;;5064752;28;20067;-82
2024/01/20 00:22:33;;;;;;;20.27;13.77;;;0.70;99.90;;;;;;5080646;28;20212;-84
2024/01/20 00:25:00;;;;;;;22.35;13.75;;;;;;;;;;5060805;28;20079;-82
2024/01/20 00:27:34;;;;;;;24.30;11.80;;;;;;;;;;5062849;28;20051;-84
2024/01/20 00:30:00;;;;;;;22.75;12.20;;;;;;;;;;5064694;28;20055;-86
2024/01/20 00:32:26;;;;;;;23.92;14.23;;;;;;;;;;5061964;28;20046;-83
2024/01/20 00:34:52;;;;;;;25.20;15.52;;;;;;;;;;5085585;28;20082;-82
2024/01/20 00:37:19;;;;;;;23.42;14.93;;;;;;;;;;5079899;28;20116;-84
2024/01/20 00:39:45;;;;;;;26.63;14.82;;;;;;;;;;5077518;28;20054;-83
2024/01/20 00:42:11;;;;;;;26.40;15.60;;;;;;;;;;5064618;28;20047;-82
2024/01/20 00:44:37;;;;;;;30.55;15.70;;;;;;;;;;5064877;28;20075;-83
2024/01/20 00:47:03;;;;;;;25.73;16.70;;;;;;;;;;5061161;28;20051;-81
2024/01/20 00:49:33;;;;;;;28.73;16.48;;;;;;;;;;5060300;28;20040;-84
2024/01/20 00:51:59;;;;;;;31.58;16.88;;;;;;;;;;5070713;28;20056;-83
2024/01/20 00:54:25;;;;;;;27.90;17.08;;;;;;;;;;5061865;28;20040;-84
2024/01/20 00:56:51;;;;;;;23.75;15.32;;;;;;;;;;5075509;28;20048;-82
2024/01/20 00:59:17;;;;;;;29.33;17.23;;;;;;;;;;5058728;28;20051;-85
2024/01/20 01:01:43;;;;;;;24.33;16.77;;;;;;;;;;5079307;28;20146;-83
2024/01/20 01:04:10;;;;;;;26.48;17.70;;;;;;;;;;5075531;28;20579;-83
2024/01/20 01:06:36;;;;;;;27.50;17.88;;;;;;;;;;5079640;28;20043;-83
2024/01/20 01:09:03;;;;;;;30.42;17.27;;;;;;;;;;5066008;28;20404;-82
2024/01/20 01:11:31;;;;;;;27.55;18.73;;;;;;;;;;5063053;28;20055;-81
2024/01/20 01:13:58;;;;;;;26.45;17.73;;;;;;;;;;5078172;28;20044;-82
2024/01/20 01:16:24;;;;;;;36.60;20.95;;;;;;;;;;5060756;28;20052;-82
2024/01/20 01:18:50;;;;;;;31.73;20.88;;;;;;;;;;5059764;28;20036;-81
2024/01/20 01:21:16;;;;;;;38.92;19.05;;;;;;;;;;5078609;28;20039;-81
2024/01/20 01:23:43;;;;;;;30.75;19.80;;;;;;;;;;5059304;28;20047;-82
2024/01/20 01:26:09;;;;;;;34.72;21.23;;;;;;;;;;5078330;28;20100;-85
2024/01/20 01:28:35;;;;;;;32.33;21.83;;;;;;;;;;5063701;28;20052;-83
2024/01/20 01:31:01;;;;;;;35.90;22.45;;;;;;;;;;5063301;28;20097;-81
2024/01/20 01:33:28;;;;;;;33.22;22.25;;;;;;;;;;5064510;28;20051;-83
2024/01/20 01:35:54;;;;;;;38.65;23.42;;;;;;;;;;5077359;28;20043;-81
2024/01/20 01:38:20;;;;;;;31.67;21.88;;;;;;;;;;5061058;28;20618;-82
2024/01/20 01:40:46;;;;;;;40.00;22.13;;;;;;;;;;5062015;28;20530;-80
2024/01/20 01:43:12;;;;;;;37.17;22.15;;;;;;;;;;5064405;28;20044;-82
2024/01/20 01:45:38;;;;;;;37.20;24.27;;;;;;;;;;5064015;28;20075;-83
2024/01/20 01:48:04;;;;;;;32.28;22.85;;;;;;;;;;5064740;28;20164;-85
2024/01/20 01:50:31;;;;;;;38.65;25.00;;;;;;;;;;5059855;28;20501;-81
2024/01/20 01:52:58;;;;;;;32.92;24.00;;;;;;;;;;5059977;28;20117;-81
2024/01/20 01:55:24;;;;;;;42.88;24.67;;;0.10;99.90;;;;;;5062886;28;20485;-82
2024/01/20 01:57:54;;;;;;;34.50;23.63;;;;;;;;;;5062080;28;20460;-82
2024/01/20 02:00:20;;;;;;;41.67;24.80;;;;;;;;;;5061234;28;20055;-85
2024/01/20 02:02:46;;;;;;;50.17;27.33;;;;;;;;;;5075974;28;20050;-83
2024/01/20 02:05:12;;;;;;;39.33;26.65;;;;;;;;;;5079755;28;20044;-83
2024/01/20 02:07:40;;;;;;;40.08;26.58;;;;;;;;;;5063093;28;20140;-83
2024/01/20 02:10:07;;;;;;;47.85;27.65;;;;;;;;;;5064645;28;20051;-82
2024/01/20 02:12:34;;;;;;;45.45;25.58;;;;;;;;;;5079036;28;20039;-82
2024/01/20 02:15:00;;;;;;;44.10;27.85;;;;;;;;;;5073953;28;20047;-81
2024/01/20 02:17:26;;;;;;;44.78;27.48;;;;;;;;;;5060827;28;20637;-80
2024/01/20 02:19:53;;;;;;;50.22;28.75;;;;;;;;;;5080239;28;20491;-82
2024/01/20 02:22:19;;;;;;;45.40;28.52;;;;;;;;;;5065329;28;20126;-82
2024/01/20 02:24:49;;;;;;;51.88;30.65;;;-0.20;99.90;;;;;;5079786;28;20048;-81
2024/01/20 02:27:16;;;;;;;46.72;29.17;;;;;;;;;;5069259;28;20040;-82
2024/01/20 02:29:42;;;;;;;51.08;28.58;;;;;;;;;;5062409;28;20047;-82
2024/01/20 02:32:08;;;;;;;49.60;30.23;;;;;;;;;;5064726;28;20715;-82
2024/01/20 02:34:37;;;;;;;45.13;29.90;;;;;;;;;;5060506;28;20784;-82
2024/01/20 02:37:04;;;;;;;53.05;32.25;;;;;;;;;;5065052;28;20039;-82
2024/01/20 02:39:30;;;;;;;48.67;28.45;;;;;;;;;;5061748;28;20126;-81
2024/01/20 02:41:56;;;;;;;50.10;31.52;;;;;;;;;;5075496;28;20036;-80
2024/01/20 02:44:22;;;;;;;45.13;30.88;;;;;;;;;;5064300;28;20042;-81
2024/01/20 02:46:49;;;;;;;46.80;31.45;;;;;;;;;;5060049;28;20039;-83
2024/01/20 02:49:15;;;;;;;46.33;31.48;;;;;;;;;;5065684;28;20088;-81
2024/01/20 02:51:41;;;;;;;43.25;29.73;;;;;;;;;;5079562;28;20063;-84
2024/01/20 02:54:07;;;;;;;52.72;31.83;;;;;;;;;;5079749;28;20077;-82
2024/01/20 02:56:33;;;;;;;50.53;33.63;;;;;;;;;;5078673;28;20036;-81
2024/01/20 02:58:59;;;;;;;50.33;32.03;;;;;;;;;;5062427;28;20071;-83
2024/01/20 03:01:26;;;;;;;55.85;33.33;;;;;;;;;;5059868;28;20948;-82
2024/01/20 03:03:52;;;;;;;52.90;31.15;;;;;;;;;;5076600;28;20051;-82
2024/01/20 03:06:18;;;;;;;50.78;30.33;;;;;;;;;;5077790;28;20584;-81
2024/01/20 03:08:44;;;;;;;50.55;30.30;;;;;;;;;;5060747;28;20051;-82
2024/01/20 03:11:10;;;;;;;54.17;33.40;;;;;;;;;;5080124;28;20064;-82
2024/01/20 03:13:36;;;;;;;47.08;29.63;;;;;;;;;;5085709;28;20036;-83
2024/01/20 03:16:03;;;;;;;55.42;32.22;;;;;;;;;;5083954;28;20048;-83
2024/01/20 03:18:31;;;;;;;50.00;29.90;;;;;;;;;;5083770;28;20098;-83
2024/01/20 03:20:57;;;;;;;53.10;30.63;;;;;;;;;;5067794;28;20130;-82
2024/01/20 03:23:24;;;;;;;49.53;28.90;;;;;;;;;;5058687;28;20507;-82
2024/01/20 03:25:50;;;;;;;51.60;33.15;;;;;;;;;;5066402;28;20536;-82
2024/01/20 03:28:17;;;;;;;48.90;31.50;;;;;;;;;;5066066;28;20047;-84
2024/01/20 03:30:43;;;;;;;52.03;28.85;;;;;;;;;;5068231;28;20086;-82
2024/01/20 03:33:09;;;;;;;49.65;29.70;;;;;;;;;;5065482;28;20142;-82
2024/01/20 03:35:35;;;;;;;49.50;30.30;;;;;;;;;;5084644;28;20078;-83
2024/01/20 03:38:01;;;;;;;55.03;31.98;;;;;;;;;;5059332;28;20124;-83
2024/01/20 03:40:28;;;;;;;50.03;31.40;;;;;;;;;;5082084;28;20051;-84
2024/01/20 03:42:54;;;;;;;48.47;30.92;;;;;;;;;;5059091;28;20111;-83
2024/01/20 03:45:20;;;;;;;54.78;32.53;;;;;;;;;;5067540;28;20818;-85
2024/01/20 03:47:46;;;;;;;51.60;31.90;;;;;;;;;;5083811;28;20075;-82
2024/01/20 03:50:12;;;;;;;46.50;28.90;;;;;;;;;;5067175;28;20085;-82
2024/01/20 03:52:38;;;;;;;51.05;31.38;;;;;;;;;;5082644;28;20052;-80
2024/01/20 03:55:06;;;;;;;62.05;34.47;;;;;;;;;;5065765;28;20040;-83
2024/01/20 03:57:32;;;;;;;52.53;29.00;;;;;;;;;;5065463;28;20127;-82
2024/01/20 03:59:58;;;;;;;56.65;34.88;;;;;;;;;;5067809;28;20130;-82
2024/01/20 04:02:24;;;;;;;58.28;35.17;;;;;;;;;;5063137;28;20056;-81
2024/01/20 04:04:51;;;;;;;57.97;34.80;;;;;;;;;;5061976;28;20093;-82
2024/01/20 04:07:17;;;;;;;57.83;35.30;;;;;;;;;;5064389;28;20131;-83
2024/01/20 04:09:43;;;;;;;52.53;31.23;;;;;;;;;;5083270;28;20043;-81
2024/01/20 04:12:09;;;;;;;51.65;30.27;;;;;;;;;;5065321;28;20121;-82
2024/01/20 04:14:35;;;;;;;55.85;30.60;;;;;;;;;;5067490;28;20687;-81
2024/01/20 04:17:01;;;;;;;53.17;30.45;;;;;;;;;;5067026;28;20050;-79
2024/01/20 04:19:27;;;;;;;50.33;27.42;;;;;;;;;;5081136;28;20578;-81
2024/01/20 04:21:53;;;;;;;56.47;32.05;;;;;;;;;;5065576;28;20515;-83
2024/01/20 04:24:20;;;;;;;59.65;29.25;;;;;;;;;;5078768;28;20500;-83
2024/01/20 04:26:46;;;;;;;52.20;27.35;;;;;;;;;;5081696;28;20150;-81
2024/01/20 04:29:12;;;;;;;59.03;28.75;;;;;;;;;;5064730;28;20044;-82
2024/01/20 04:31:38;;;;;;;55.65;31.02;;;;;;;;;;5065057;28;20035;-82
2024/01/20 04:34:05;;;;;;;53.10;29.23;;;;;;;;;;5064918;28;20044;-80
2024/01/20 04:36:31;;;;;;;50.10;30.38;;;;;;;;;;5079238;28;20044;-80
2024/01/20 04:38:57;;;;;;;47.50;26.08;;;;;;;;;;5070626;28;20048;-81
2024/01/20 04:41:23;;;;;;;47.47;25.98;;;;;;;;;;5063760;28;20048;-81
2024/01/20 04:46:16;;;;;;;50.95;27.23;;;;;;;;;;5111118;27;21328;-80
2024/01/20 04:48:42;;;;;;;48.20;26.95;;;;;;;;;;5072715;28;20094;-82
2024/01/20 04:51:08;;;;;;;46.95;27.35;;;;;;;;;;5086448;28;20051;-82
2024/01/20 04:53:35;;;;;;;50.72;29.05;;;;;;;;;;5071768;28;20039;-81
2024/01/20 04:56:05;;;;;;;59.67;30.83;;;;;;;;;;5081645;28;20048;-82
2024/01/20 04:58:31;;;;;;;56.55;28.98;;;;;;;;;;5091775;28;20128;-82
2024/01/20 05:00:58;;;;;;;59.13;28.55;;;;;;;;;;5086987;28;20114;-81
2024/01/20 05:03:24;;;;;;;58.22;29.10;;;;;;;;;;5075729;28;20138;-81
2024/01/20 05:05:50;;;;;;;53.30;28.05;;;;;;;;;;5083857;28;20113;-82
2024/01/20 05:08:16;;;;;;;59.30;30.95;;;;;;;;;;5099289;28;20032;-81
2024/01/20 05:10:42;;;;;;;59.47;31.08;;;;;;;;;;5076621;28;20785;-81
2024/01/20 05:13:09;;;;;;;63.15;30.85;;;;;;;;;;5085431;28;20362;-81
2024/01/20 05:15:35;;;;;;;67.78;35.42;;;;;;;;;;5097405;28;20051;-81
2024/01/20 05:18:01;;;;;;;59.63;30.63;;;;;;;;;;5088818;28;20054;-82
2024/01/20 05:20:27;;;;;;;65.00;31.50;;;;;;;;;;5080627;28;20045;-81
2024/01/20 05:22:53;;;;;;;60.50;32.03;;;;;;;;;;5088654;28;20039;-81
2024/01/20 05:25:20;;;;;;;63.53;32.38;;;;;;;;;;5066323;28;20438;-81
2024/01/20 05:27:46;;;;;;;62.97;31.35;;;;;;;;;;5085425;28;20040;-82
2024/01/20 05:30:12;;;;;;;61.97;32.72;;;;;;;;;;5068611;28;20397;-81
2024/01/20 05:32:41;;;;;;;59.03;29.77;;;;;;;;;;5074506;28;20714;-81
2024/01/20 05:37:32;;;;;;;64.70;29.77;;;;;;;;;;5146640;27;20433;-81
2024/01/20 05:39:58;;;;;;;68.88;32.28;;;;;;;;;;5113344;28;20675;-82
2024/01/20 05:42:24;;;;;;;67.30;31.27;;;;;;;;;;5100684;28;20147;-82
2024/01/20 05:44:51;;;;;;;68.63;33.58;;;;;;;;;;5099603;28;20098;-81
2024/01/20 05:47:17;;;;;;;67.80;32.67;;;;;;;;;;5114666;28;20477;-81
2024/01/20 05:49:43;;;;;;;68.55;33.00;;;;;;;;;;5116607;28;20050;-82
2024/01/20 05:52:10;;;;;;;74.43;32.80;;;;;;;;;;5112941;28;20078;-81
2024/01/20 05:54:36;;;;;;;69.97;32.53;;;;;;;;;;5115032;28;20035;-82
2024/01/20 05:57:02;;;;;;;66.63;31.33;;;;;;;;;;5111823;28;20781;-81
2024/01/20 05:59:28;;;;;;;62.13;31.92;;;;;;;;;;5098289;28;20130;-80
2024/01/20 06:01:54;;;;;;;66.60;31.27;;;;;;;;;;5089931;28;20664;-80
2024/01/20 06:04:21;;;;;;;66.82;31.05;;;;;;;;;;5096924;28;20122;-80
2024/01/20 06:06:52;;;;;;;72.03;32.45;;;-1.30;99.90;;;;;;5110029;28;20059;-80
2024/01/20 06:09:21;;;;;;;76.40;33.08;;;-1.30;99.90;;;;;;5099291;28;20043;-81
2024/01/20 06:11:48;;;;;;;70.47;32.97;;;;;;;;;;5111630;28;20039;-81
2024/01/20 06:14:14;;;;;;;73.05;33.55;;;;;;;;;;5098376;28;20143;-80
2024/01/20 06:16:41;;;;;;;78.45;33.45;;;;;;;;;;5100159;28;20054;-80
2024/01/20 06:19:10;;;;;;;81.47;32.95;;;;;;;;;;5095549;28;20051;-81
2024/01/20 06:21:37;;;;;;;69.78;30.05;;;;;;;;;;5116768;28;20520;-80
2024/01/20 06:24:03;;;;;;;79.88;33.85;;;-1.70;99.90;;;;;;5099299;28;20039;-80
2024/01/20 06:26:32;;;;;;;68.60;31.60;;;;;;;;;;5096882;28;20044;-80
2024/01/20 06:28:58;;;;;;;78.13;33.83;;;;;;;;;;5116298;28;20039;-81
2024/01/20 06:31:25;;;;;;;72.95;30.83;;;-1.50;99.90;;;;;;5116766;28;20670;-80
2024/01/20 06:33:52;;;;;;;77.70;33.50;;;-1.50;99.90;;;;;;5108689;28;20496;-80
2024/01/20 06:36:18;;;;;;;77.13;31.27;;;;;;;;;;5092369;28;20148;-79
2024/01/20 06:38:44;;;;;;;78.40;32.42;;;;;;;;;;5099991;28;20128;-79
2024/01/20 06:41:11;;;;;;;82.63;36.28;;;;;;;;;;5110599;28;20108;-79
2024/01/20 06:43:37;;;;;;;76.85;31.65;;;;;;;;;;5110385;28;20079;-80
2024/01/20 06:46:03;;;;;;;70.82;29.58;;;;;;;;;;5098335;28;20151;-79
2024/01/20 06:48:33;;;;;;;77.10;32.05;;;-1.50;99.90;;;;;;5102550;28;20389;-79
2024/01/20 06:51:06;;;;;;;76.53;32.13;;;-1.50;99.90;;;;;;5081403;28;20039;-80
2024/01/20 06:53:32;;;;;;;65.60;29.77;;;-1.50;99.90;;;;;;5074990;28;20691;-79
2024/01/20 06:55:59;;;;;;;71.85;31.05;;;;;;;;;;5091528;28;20039;-79
2024/01/20 06:58:25;;;;;;;75.90;31.27;;;;;;;;;;5102408;28;20082;-80
2024/01/20 07:00:51;;;;;;;73.13;31.77;;;;;;;;;;5082165;28;20100;-79
2024/01/20 07:03:17;;;;;;;69.88;29.67;;;-1.30;99.90;;;;;;5095082;28;20059;-80
2024/01/20 07:05:43;;;;;;;72.55;30.58;;;-1.30;99.90;;;;;;5084802;28;20612;-79
2024/01/20 07:08:10;;;;;;;71.05;27.40;;;0.90;99.90;;;;;;5084459;28;20146;-78
2024/01/20 07:10:36;;;;;;;72.80;31.00;;;;;;;;;;5084118;28;20796;-78
2024/01/20 07:13:02;;;;;;;67.75;30.75;;;;;;;;;;5094143;28;20134;-79
2024/01/20 07:15:28;;;;;;;66.22;30.33;;;;;;;;;;5084148;28;20813;-78
2024/01/20 07:17:56;;;;;;;74.30;30.85;;;-1.20;99.90;;;;;;5083987;28;20039;-79
2024/01/20 07:20:22;;;;;;;66.55;26.65;;;-1.10;99.90;;;;;;5083122;28;20100;-79
2024/01/20 07:22:49;;;;;;;62.45;31.10;;;;;;;;;;5081923;28;20703;-79
2024/01/20 07:25:17;;;;;;;74.45;31.83;;;-1.10;99.90;;;;;;5100338;28;20114;-79
2024/01/20 07:27:43;;;;;;;73.97;30.17;;;;;;;;;;5096678;28;20418;-79
2024/01/20 07:30:12;;;;;;;74.57;30.88;;;-1.30;99.90;;;;;;5079950;28;20054;-80
2024/01/20 07:32:41;;;;;;;70.15;29.33;;;-1.10;99.90;;;;;;5091659;28;20035;-80
2024/01/20 07:35:08;;;;;;;63.92;27.27;;;-1.20;99.90;;;;;;5095015;28;20035;-80
2024/01/20 07:37:37;;;;;;;71.88;31.27;;;;;;;;;;5085624;28;20046;-79
2024/01/20 07:40:07;;;;;;;72.07;29.63;;;;;;;;;;5092423;28;20048;-79
2024/01/20 07:42:34;;;;;;;74.45;30.73;;;;;;;;;;5078587;28;20036;-79
2024/01/20 07:45:00;;;;;;;71.18;31.17;;;;;;;;;;5099068;28;20046;-81
2024/01/20 07:47:26;;;;;;;71.80;29.80;;;;;;;;;;5080091;28;20531;-79
2024/01/20 07:49:53;;;;;;;60.00;26.17;;;;;;;;;;5095967;28;20602;-80
2024/01/20 07:52:19;;;;;;;71.95;32.53;;;;;;;;;;5097544;28;20515;-79
2024/01/20 07:54:45;;;;;;;73.55;33.08;;;;;;;;;;5077598;28;20047;-80
2024/01/20 07:57:12;;;;;;;74.60;29.25;;;;;;;;;;5080250;28;20509;-78
2024/01/20 07:59:38;;;;;;;68.40;31.10;;;;;;;;;;5077618;28;20043;-78
2024/01/20 08:02:04;;;;;;;71.80;31.38;;;;;;;;;;5079589;28;20042;-79
2024/01/20 08:04:30;;;;;;;65.70;30.60;;;;;;;;;;5098017;28;20150;-80
2024/01/20 08:06:56;;;;;;;63.60;28.92;;;;;;;;;;5094674;28;20461;-78
2024/01/20 08:09:22;;;;;;;72.32;32.10;;;;;;;;;;5092163;28;20447;-78
2024/01/20 08:11:49;;;;;;;71.80;30.48;;;;;;;;;;5080613;28;20620;-80
2024/01/20 08:14:15;;;;;;;68.32;32.60;;;;;;;;;;5099391;28;20036;-78
2024/01/20 08:16:41;;;;;;;72.90;30.88;;;;;;;;;;5076105;28;20071;-79
2024/01/20 08:19:07;;;;;;;66.20;30.77;;;;;;;;;;5095887;28;20075;-78
2024/01/20 08:21:34;;;;;;;76.88;30.10;;;;;;;;;;5078978;28;20047;-79
2024/01/20 08:24:00;;;;;;;71.72;32.42;;;;;;;;;;5084437;28;20929;-80
2024/01/20 08:26:26;;;;;;;74.75;31.33;;;;;;;;;;5080996;28;20050;-79
2024/01/20 08:28:52;;;;;;;63.75;29.20;;;;;;;;;;5097178;28;20050;-79
2024/01/20 08:31:18;;;;;;;68.45;31.00;;;;;;;;;;5097449;28;20703;-81
2024/01/20 08:33:45;;;;;;;63.15;27.30;;;;;;;;;;5091095;28;20039;-79
2024/01/20 08:36:11;;;;;;;60.95;28.38;;;;;;;;;;5082653;28;20780;-79
2024/01/20 08:38:37;;;;;;;60.78;29.63;;;;;;;;;;5094625;28;20040;-80
2024/01/20 08:41:09;;;;;;;56.22;26.88;;;-0.40;99.90;;;;;;5082604;28;20071;-80
2024/01/20 08:43:42;;;;;;;60.22;27.67;;;;;;;;;;5085226;28;20158;-79
2024/01/20 08:46:09;;;;;;;56.55;27.30;;;;;;;;;;5083360;28;20051;-79
2024/01/20 08:48:35;;;;;;;61.53;29.20;;;;;;;;;;5093079;28;20040;-79
2024/01/20 08:51:01;;;;;;;57.83;27.52;;;;;;;;;;5082790;28;20124;-78
2024/01/20 08:53:27;;;;;;;56.22;25.60;;;;;;;;;;5099485;28;20545;-78
2024/01/20 08:55:54;;;;;;;57.17;27.33;;;;;;;;;;5092554;28;20055;-78
2024/01/20 08:58:20;;;;;;;57.95;26.80;;;;;;;;;;5094852;28;20131;-78
2024/01/20 09:00:46;;;;;;;65.25;28.92;;;;;;;;;;5079656;28;20780;-78
2024/01/20 09:03:12;;;;;;;59.13;27.42;;;;;;;;;;5076969;28;20418;-79
2024/01/20 09:05:38;;;;;;;55.55;27.60;;;;;;;;;;5077046;28;20048;-78
2024/01/20 09:08:05;;;;;;;55.75;27.30;;;;;;;;;;5095240;28;20054;-78
2024/01/20 09:10:31;;;;;;;60.22;27.80;;;;;;;;;;5095861;28;20093;-78
2024/01/20 09:13:00;;;;;;;57.17;26.45;;;;;;;;;;5091503;28;20494;-79
2024/01/20 09:15:26;;;;;;;53.20;25.83;;;;;;;;;;5079106;28;20039;-79
2024/01/20 09:17:53;;;;;;;52.75;27.63;;;;;;;;;;5087945;28;20049;-79
2024/01/20 09:20:19;;;;;;;57.80;26.08;;;;;;;;;;5093783;28;20040;-78
2024/01/20 09:22:46;;;;;;;54.95;25.98;;;;;;;;;;5088161;28;20040;-78
2024/01/20 09:25:12;;;;;;;49.10;24.88;;;;;;;;;;5094026;28;20515;-79
2024/01/20 09:27:38;;;;;;;54.63;23.25;;;;;;;;;;5073705;28;20970;-79
2024/01/20 09:30:05;;;;;;;59.63;27.50;;;;;;;;;;5077078;28;20092;-78
2024/01/20 09:32:33;;;;;;;50.53;22.63;;;;;;;;;;5092147;28;20043;-79
2024/01/20 09:35:03;;;;;;;58.63;26.40;;;;;;;;;;5073653;28;20068;-79
2024/01/20 09:37:29;;;;;;;54.83;25.25;;;;;;;;;;5072857;28;20393;-78
2024/01/20 09:40:00;;;;;;;47.83;23.73;;;;;;;;;;5080280;28;20046;-78
2024/01/20 09:42:27;;;;;;;49.47;24.45;;;;;;;;;;5094201;28;20051;-78
2024/01/20 09:44:53;;;;;;;50.55;23.90;;;;;;;;;;5077162;28;20039;-78
2024/01/20 09:47:19;;;;;;;52.95;24.13;;;;;;;;;;5094685;28;20048;-79
2024/01/20 09:49:46;;;;;;;55.58;23.02;;;;;;;;;;5077663;28;20043;-80
2024/01/20 09:52:26;;;;;;;64.13;26.48;;;;;;;;;;5077610;28;20043;-78
2024/01/20 09:54:55;;;;;;;50.60;23.08;;;0.70;99.90;;;;;;5076540;28;20039;-81
2024/01/20 09:57:23;;;;;;;47.40;22.52;;;;;;;;;;5095129;28;20050;-79
2024/01/20 09:59:49;;;;;;;49.28;23.85;;;;;;;;;;5098361;28;20084;-77
2024/01/20 10:02:17;;;;;;;49.70;24.10;;;-1.20;99.90;;;;;;5079664;28;20048;-76
2024/01/20 10:04:46;;;;;;;48.33;23.50;;;0.90;99.90;;;;;;5077449;28;20048;-78
2024/01/20 10:07:27;;;;;;;46.38;21.08;;;1.00;99.90;;;;;;5087149;28;20031;-79
2024/01/20 10:09:53;;;;;;;46.63;22.13;;;;;;;;;;5084643;28;20442;-79
2024/01/20 10:12:19;;;;;;;53.10;25.40;;;;;;;;;;5092652;28;20500;-77
2024/01/20 10:14:45;;;;;;;49.75;23.48;;;;;;;;;;5078572;28;20028;-78
2024/01/20 10:17:11;;;;;;;52.72;24.90;;;;;;;;;;5071287;28;20046;-77
2024/01/20 10:19:38;;;;;;;48.15;24.15;;;;;;;;;;5088484;28;20169;-79
2024/01/20 10:22:10;;;;;;;44.40;21.88;;;;;;;;;;5074359;28;20043;-80
2024/01/20 10:24:49;;;;;;;43.25;23.00;;;1.10;99.90;;;;;;5099246;28;20050;-79
2024/01/20 10:27:18;;;;;;;45.40;22.83;;;1.10;99.90;;;;;;5081071;28;20078;-78
2024/01/20 10:29:45;;;;;;;41.67;22.55;;;1.10;99.90;;;;;;5079376;28;20107;-81
2024/01/20 10:32:11;;;;;;;45.65;22.95;;;;;;;;;;5082747;28;20523;-78
2024/01/20 10:34:37;;;;;;;42.25;20.42;;;;;;;;;;5099027;28;20723;-79
2024/01/20 10:37:11;;;;;;;40.75;21.20;;;1.40;99.90;;;;;;5082045;28;20163;-79
2024/01/20 10:39:42;;;;;;;40.35;19.67;;;1.40;99.90;;;;;;5099616;28;20047;-79
2024/01/20 10:42:13;;;;;;;46.58;23.48;;;1.50;99.90;;;;;;5099605;28;20916;-78
2024/01/20 10:44:50;;;;;;;47.72;21.67;;;1.50;99.90;;;;;;5087816;28;20723;-81
2024/01/20 10:47:25;;;;;;;42.78;21.02;;;1.50;99.90;;;;;;5099791;28;20552;-79
2024/01/20 10:49:52;;;;;;;41.35;21.45;;;;;;;;;;5073648;28;20630;-80
2024/01/20 10:52:18;;;;;;;41.10;20.55;;;;;;;;;;5085259;28;20031;-80
2024/01/20 10:54:44;;;;;;;36.28;19.80;;;;;;;;;;5096541;28;20046;-80
2024/01/20 10:57:11;;;;;;;41.22;20.25;;;;;;;;;;5096422;28;20039;-79
2024/01/20 10:59:42;;;;;;;37.60;20.02;;;1.60;99.90;;;;;;5067014;28;20051;-80
2024/01/20 11:02:10;;;;;;;40.17;18.90;;;1.70;99.90;;;;;;5081597;28;20047;-80
2024/01/20 11:04:40;;;;;;;41.67;21.15;;;;;;;;;;5081133;28;20809;-82
2024/01/20 11:07:09;;;;;;;42.35;20.38;;;1.70;99.90;;;;;;5099136;28;20043;-81
2024/01/20 11:09:36;;;;;;;40.70;19.13;;;1.70;99.90;;;;;;5095381;28;20063;-81
2024/01/20 11:12:06;;;;;;;37.83;19.77;;;1.80;99.90;;;;;;5078366;28;20040;-82
2024/01/20 11:14:55;;;;;;;41.63;18.40;;;;;;;;;;5049402;28;20906;-86
2024/01/20 11:17:25;;;;;;;38.90;19.02;;;;;;;;;;5048831;28;20071;-82
2024/01/20 11:19:54;;;;;;;42.72;19.75;;;;;;;;;;5075156;28;20050;-81
2024/01/20 11:26:21;;;;;;;39.28;20.15;;;;;;;;;;5054981;28;20052;-87
2024/01/20 11:28:51;;;;;;;34.75;18.08;;;;;;;;;;5079107;28;20036;-84
2024/01/20 11:31:30;;;;;;;36.00;19.17;;;;;;;;;;5055958;28;20145;-86
2024/01/20 11:34:16;;;;;;;36.72;18.38;;;;;;;;;;5079714;28;20125;-85
2024/01/20 11:40:33;;;;;;;39.65;18.02;;;;;;;;;;5030390;28;20055;-85
2024/01/20 11:43:47;;;;;;;;;;;;;;;;;;;;;
2024/01/20 11:46:41;;;;;;;37.35;19.05;;;;;;;;;;4976056;28;19924;-86
2024/01/20 11:49:16;;;;;;;41.90;21.13;;;;;;;;;;4984785;28;20139;-88
2024/01/20 11:51:42;;;;;;;38.78;18.95;;;;;;;;;;5016883;28;20047;-85
2024/01/20 11:54:11;;;;;;;34.88;18.08;;;;;;;;;;4988803;28;20053;-84
2024/01/20 11:56:38;;;;;;;41.17;19.55;;;;;;;;;;5002672;28;20053;-86
2024/01/20 11:59:37;;;;;;;35.95;18.48;;;;;;;;;;5003151;28;20048;-85
2024/01/20 12:02:12;;;;;;;37.42;17.58;;;;;;;;;;4956599;28;20048;-86
2024/01/20 12:07:38;;;;;;;38.40;19.77;;;;;;;;;;5019411;28;20678;-87
2024/01/20 12:10:29;;;;;;;35.25;17.60;;;;;;;;;;4999107;28;20415;-85
2024/01/20 12:26:49;;;;;;;;;;;;;;;;;;;;;
2024/01/20 12:29:24;;;;;;;36.97;19.23;;;;;;;;;;4885207;29;20213;-85
2024/01/20 12:32:22;;;;;;;38.38;19.08;;;;;;;;;;4885743;29;20770;-86
2024/01/20 12:35:01;;;;;;;35.72;16.38;;;;;;;;;;4874389;29;20503;-85
2024/01/20 12:37:30;;;;;;;35.15;18.23;;;;;;;;;;4908723;28;20050;-84
2024/01/20 12:39:57;;;;;;;36.33;18.63;;;;;;;;;;4951741;28;20054;-86
2024/01/20 12:42:23;;;;;;;36.67;20.38;;;;;;;;;;4949427;28;20073;-85
2024/01/20 12:44:57;;;;;;;41.58;20.15;;;;;;;;;;4929933;28;20557;-88
2024/01/20 12:47:26;;;;;;;37.30;18.70;;;;;;;;;;4970640;28;20084;-85
2024/01/20 12:49:53;;;;;;;36.83;18.10;;;;;;;;;;4978792;28;20136;-87
2024/01/20 12:52:19;;;;;;;37.47;18.25;;;;;;;;;;5015289;28;20036;-88
2024/01/20 12:55:02;;;;;;;40.45;18.83;;;;;;;;;;4991822;28;20048;-85
2024/01/20 12:57:32;;;;;;;35.58;18.42;;;;;;;;;;5008252;28;20040;-85
2024/01/20 13:00:18;;;;;;;33.72;16.45;;;;;;;;;;4960185;28;20492;-86
2024/01/20 13:03:05;;;;;;;37.95;17.20;;;;;;;;;;4908332;28;20213;-85
2024/01/20 13:05:59;;;;;;;42.28;19.02;;;;;;;;;;5019197;28;20053;-86
2024/01/20 13:09:11;;;;;;;36.05;19.63;;;;;;;;;;4974019;28;20049;-86
2024/01/20 13:11:58;;;;;;;37.35;19.10;;;;;;;;;;4948719;28;20108;-86
2024/01/20 13:21:26;;;;;;;45.13;18.58;;;;;;;;;;5023188;28;20063;-91
2024/01/20 13:23:52;;;;;;;33.85;17.38;;;;;;;;;;4954924;28;20172;-84
2024/01/20 13:26:19;;;;;;;36.17;16.67;;;;;;;;;;4972099;28;20061;-85
2024/01/20 13:28:58;;;;;;;35.33;15.73;;;;;;;;;;4997640;28;20045;-87
2024/01/20 13:31:34;;;;;;;33.40;16.45;;;;;;;;;;5025025;28;20809;-85
2024/01/20 13:34:00;;;;;;;34.88;17.52;;;;;;;;;;5009293;28;20195;-86
2024/01/20 13:36:27;;;;;;;31.55;16.45;;;;;;;;;;5026760;28;20806;-84
2024/01/20 13:38:56;;;;;;;36.80;16.35;;;;;;;;;;5032687;28;20815;-87
2024/01/20 13:41:23;;;;;;;32.05;16.33;;;;;;;;;;5032361;28;20149;-86
2024/01/20 13:44:10;;;;;;;29.63;15.90;;;;;;;;;;4988303;28;20767;-85
2024/01/20 13:46:37;;;;;;;28.88;16.98;;;;;;;;;;5002203;28;20040;-82
2024/01/20 13:49:03;;;;;;;32.90;17.42;;;;;;;;;;5026158;28;20047;-83
2024/01/20 13:51:31;;;;;;;36.22;18.20;;;;;;;;;;5026511;28;20041;-85
2024/01/20 13:54:04;;;;;;;34.45;17.45;;;;;;;;;;5011842;28;20047;-83
2024/01/20 13:56:56;;;;;;;32.22;16.77;;;;;;;;;;4999418;28;20052;-83
2024/01/20 14:02:23;;;;;;;34.45;19.08;;;;;;;;;;4971318;28;20053;-85
2024/01/20 14:04:52;;;;;;;32.97;16.77;;;;;;;;;;5009873;28;20208;-82
2024/01/20 14:07:35;;;;;;;35.10;15.73;;;;;;;;;;5012708;28;20056;-84
2024/01/20 14:10:11;;;;;;;27.35;15.00;;;;;;;;;;5015788;28;20407;-84
2024/01/20 14:13:07;;;;;;;30.00;16.42;;;;;;;;;;5009331;28;20045;-84
2024/01/20 14:18:35;;;;;;;29.17;16.75;;;;;;;;;;4988223;28;20042;-83
2024/01/20 14:21:01;;;;;;;33.35;17.23;;;;;;;;;;5033236;28;20049;-81
2024/01/20 14:23:27;;;;;;;37.55;18.48;;;;;;;;;;5041919;28;20045;-84
2024/01/20 14:25:54;;;;;;;33.47;16.58;;;;;;;;;;5042446;28;20661;-84
2024/01/20 14:28:20;;;;;;;33.80;17.15;;;;;;;;;;5026130;28;20124;-80
2024/01/20 14:30:46;;;;;;;30.95;15.63;;;;;;;;;;5026224;28;20095;-83
2024/01/20 14:33:12;;;;;;;28.50;14.07;;;;;;;;;;4688927;28;10000407;-81
2024/01/20 14:35:38;;;;;;;32.53;17.02;;;;;;;;;;5021999;28;20298;-83
2024/01/20 14:38:04;;;;;;;29.60;15.20;;;;;;;;;;5024108;28;20036;-83
2024/01/20 14:40:31;;;;;;;33.03;16.08;;;;;;;;;;5039922;28;20385;-84
2024/01/20 14:42:57;;;;;;;31.45;16.50;;;;;;;;;;5022637;28;20161;-83
2024/01/20 14:45:23;;;;;;;29.17;15.77;;;;;;;;;;5023145;28;20041;-85
2024/01/20 14:47:50;;;;;;;34.92;18.45;;;;;;;;;;5023041;28;20048;-85
2024/01/20 14:50:18;;;;;;;31.05;17.10;;;;;;;;;;5025033;28;20037;-82
2024/01/20 14:52:45;;;;;;;32.50;17.65;;;;;;;;;;5025254;28;20040;-84
2024/01/20 14:55:11;;;;;;;33.83;16.05;;;;;;;;;;5025202;28;20079;-83